createdAt,value
2022-11-21T00:02:29.453Z,13.95
2022-11-21T00:07:31.889Z,13.68
2022-11-21T00:12:34.220Z,13.93
2022-11-21T00:17:36.434Z,13.63
2022-11-21T00:22:38.549Z,14.14
2022-11-21T00:27:41.240Z,14.41
2022-11-21T00:32:43.332Z,14.51
2022-11-21T00:37:45.589Z,14.64
2022-11-21T00:42:47.862Z,14.91
2022-11-21T00:47:50.007Z,14.98
2022-11-21T00:52:59.164Z,14.86
2022-11-21T00:58:01.421Z,14.90
2022-11-21T01:03:03.795Z,15.08
2022-11-21T01:08:06.012Z,15.25
2022-11-21T01:13:08.424Z,15.20
2022-11-21T01:18:10.625Z,15.21
2022-11-21T01:23:12.790Z,15.37
2022-11-21T01:28:14.886Z,15.29
2022-11-21T01:33:16.952Z,15.37
2022-11-21T01:38:19.304Z,15.50
2022-11-21T01:43:21.574Z,15.44
2022-11-21T01:48:27.720Z,15.50
2022-11-21T01:53:29.971Z,15.70
2022-11-21T01:58:35.536Z,15.72
2022-11-21T02:03:38.849Z,14.86
2022-11-21T02:08:43.781Z,14.18
2022-11-21T02:13:45.837Z,13.82
2022-11-21T02:18:48.289Z,13.50
2022-11-21T02:24:00.354Z,13.30
2022-11-21T02:29:03.095Z,12.81
2022-11-21T02:34:05.196Z,12.85
2022-11-21T02:39:10.142Z,13.12
2022-11-21T02:44:22.557Z,12.83
2022-11-21T02:49:51.439Z,13.04
2022-11-21T02:54:53.809Z,13.30
2022-11-21T02:59:55.900Z,13.20
2022-11-21T03:04:58.145Z,13.37
2022-11-21T03:10:00.333Z,13.54
2022-11-21T03:15:02.845Z,14.00
2022-11-21T03:20:06.331Z,14.39
2022-11-21T03:25:08.876Z,14.45
2022-11-21T03:30:12.197Z,14.34
2022-11-21T03:35:15.404Z,14.17
2022-11-21T03:40:17.638Z,14.58
2022-11-21T03:45:20.616Z,14.23
2022-11-21T03:50:22.988Z,14.13
2022-11-21T03:55:25.113Z,14.40
2022-11-21T04:00:27.322Z,14.34
2022-11-21T04:05:30.011Z,13.93
2022-11-21T04:10:32.123Z,14.06
2022-11-21T04:15:34.173Z,13.94
2022-11-21T04:20:36.608Z,14.25
2022-11-21T04:25:38.881Z,14.13
2022-11-21T04:30:44.707Z,14.12
2022-11-21T04:35:47.661Z,14.35
2022-11-21T04:40:50.153Z,14.05
2022-11-21T04:45:52.558Z,14.16
2022-11-21T04:50:54.691Z,14.14
2022-11-21T04:55:56.950Z,13.69
2022-11-21T05:01:06.190Z,13.13
2022-11-21T05:06:08.726Z,12.61
2022-11-21T05:11:29.385Z,12.56
2022-11-21T05:16:33.595Z,12.71
2022-11-21T05:21:36.002Z,13.30
2022-11-21T05:26:38.367Z,13.26
2022-11-21T05:31:40.489Z,13.68
2022-11-21T05:36:42.833Z,13.84
2022-11-21T05:41:45.138Z,14.06
2022-11-21T05:46:47.665Z,13.44
2022-11-21T05:51:49.883Z,12.89
2022-11-21T05:56:52.060Z,12.68
2022-11-21T06:02:12.870Z,12.15
2022-11-21T06:07:20.080Z,12.18
2022-11-21T06:12:25.431Z,12.95
2022-11-21T06:17:28.155Z,13.49
2022-11-21T06:22:30.389Z,14.52
2022-11-21T06:27:32.639Z,14.81
2022-11-21T06:32:38.634Z,15.17
2022-11-21T06:37:40.695Z,15.12
2022-11-21T06:42:42.976Z,15.20
2022-11-21T06:47:45.213Z,15.23
2022-11-21T06:52:47.367Z,15.28
2022-11-21T06:57:49.730Z,15.30
2022-11-21T07:02:51.913Z,15.57
2022-11-21T07:08:02.250Z,16.27
2022-11-21T07:13:22.920Z,16.77
2022-11-21T07:18:25.227Z,18.21
2022-11-21T07:23:28.200Z,23.66
2022-11-21T07:28:32.421Z,26.10
2022-11-21T07:33:34.672Z,26.70
2022-11-21T07:38:36.916Z,27.72
2022-11-21T07:43:39.314Z,28.74
2022-11-21T07:48:41.439Z,25.74
2022-11-21T07:53:43.425Z,25.57
2022-11-21T07:58:45.631Z,24.03
2022-11-21T08:03:47.856Z,24.74
2022-11-21T08:08:56.198Z,25.37
2022-11-21T08:13:59.915Z,25.59
2022-11-21T08:19:02.268Z,23.37
2022-11-21T08:24:05.392Z,22.86
2022-11-21T08:29:07.690Z,21.00
2022-11-21T08:34:14.204Z,21.84
2022-11-21T08:39:16.817Z,21.91
2022-11-21T08:44:18.848Z,21.98
2022-11-21T08:49:21.225Z,21.78
2022-11-21T08:54:24.971Z,19.29
2022-11-21T08:59:27.209Z,18.04
2022-11-21T09:04:29.827Z,18.94
2022-11-21T09:09:32.105Z,19.59
2022-11-21T09:14:52.724Z,19.20
2022-11-21T09:19:55.032Z,18.98
2022-11-21T09:24:57.356Z,20.30
2022-11-21T09:29:59.775Z,21.00
2022-11-21T09:35:02.102Z,22.08
2022-11-21T09:40:06.191Z,20.51
2022-11-21T09:45:34.752Z,21.20
2022-11-21T09:50:41.843Z,20.51
2022-11-21T09:55:58.811Z,18.38
2022-11-21T10:01:01.777Z,16.34
2022-11-21T10:06:20.754Z,14.64
2022-11-21T10:11:33.225Z,13.76
2022-11-21T10:17:01.595Z,12.88
2022-11-21T10:22:19.121Z,12.35
2022-11-21T10:27:34.886Z,11.99
2022-11-21T10:32:41.220Z,11.36
2022-11-21T10:37:54.727Z,11.42
2022-11-21T10:43:44.815Z,11.01
2022-11-21T10:49:00.932Z,11.05
2022-11-21T10:54:27.503Z,10.78
2022-11-21T10:59:31.500Z,11.13
2022-11-21T11:04:43.826Z,11.03
2022-11-21T11:09:48.747Z,11.25
2022-11-21T11:14:53.420Z,11.06
2022-11-21T11:20:07.309Z,11.27
2022-11-21T11:25:10.139Z,11.08
2022-11-21T11:30:17.645Z,10.88
2022-11-21T11:35:23.398Z,10.22
2022-11-21T11:40:41.553Z,10.59
2022-11-21T11:46:50.188Z,10.59
2022-11-21T11:51:57.347Z,10.05
2022-11-21T11:56:59.963Z,9.95
2022-11-21T12:02:11.681Z,10.16
2022-11-21T12:08:38.740Z,10.07
2022-11-21T12:13:02.765Z,9.96
2022-11-21T12:18:07.716Z,9.99
2022-11-21T12:23:10.913Z,10.09
2022-11-21T12:28:31.636Z,10.12
2022-11-21T12:33:40.178Z,9.82
2022-11-21T12:39:27.080Z,9.74
2022-11-21T12:44:56.016Z,9.75
2022-11-21T12:50:41.649Z,9.66
2022-11-21T12:55:43.879Z,9.45
2022-11-21T13:01:30.134Z,9.49
2022-11-21T13:06:39.085Z,9.16
2022-11-21T13:12:07.983Z,8.89
2022-11-21T13:17:29.099Z,8.80
2022-11-21T13:22:37.612Z,8.87
2022-11-21T13:27:43.114Z,8.98
2022-11-21T13:32:55.458Z,9.03
2022-11-21T13:38:08.408Z,9.03
2022-11-21T13:43:34.505Z,8.98
2022-11-21T13:49:05.081Z,9.12
2022-11-21T13:54:27.096Z,9.15
2022-11-21T13:59:49.721Z,9.28
2022-11-21T14:05:13.604Z,9.19
2022-11-21T14:10:25.565Z,9.05
2022-11-21T14:15:51.669Z,9.08
2022-11-21T14:20:57.712Z,9.00
2022-11-21T14:26:11.025Z,8.85
2022-11-21T14:31:15.044Z,8.92
2022-11-21T14:36:20.354Z,9.09
2022-11-21T14:41:25.268Z,9.03
2022-11-21T14:46:30.185Z,8.99
2022-11-21T14:51:32.624Z,8.89
2022-11-21T14:56:34.915Z,8.97
2022-11-21T15:01:37.146Z,8.88
2022-11-21T15:06:44.881Z,8.99
2022-11-21T15:12:00.637Z,8.97
2022-11-21T15:17:07.056Z,8.82
2022-11-21T15:22:31.231Z,8.75
2022-11-21T15:27:35.441Z,8.93
2022-11-21T15:33:01.212Z,8.89
2022-11-21T15:38:03.686Z,9.18
2022-11-21T15:43:09.735Z,8.97
2022-11-21T15:48:11.998Z,9.18
2022-11-21T15:53:18.487Z,9.22
2022-11-21T15:58:20.752Z,9.68
2022-11-21T16:03:23.043Z,9.55
2022-11-21T16:08:25.187Z,9.58
2022-11-21T16:13:27.673Z,9.76
2022-11-21T16:18:30.144Z,9.60
2022-11-21T16:23:32.405Z,9.49
2022-11-21T16:28:35.545Z,9.65
2022-11-21T16:33:39.783Z,9.58
2022-11-21T16:38:42.867Z,9.41
2022-11-21T16:43:50.191Z,9.32
2022-11-21T16:49:03.294Z,9.25
2022-11-21T16:54:09.128Z,8.91
2022-11-21T16:59:11.868Z,8.89
2022-11-21T17:04:17.157Z,8.70
2022-11-21T17:09:19.894Z,8.63
2022-11-21T17:14:22.193Z,8.57
2022-11-21T17:19:24.375Z,8.44
2022-11-21T17:24:26.772Z,8.39
2022-11-21T17:29:29.996Z,8.38
2022-11-21T17:34:33.357Z,8.13
2022-11-21T17:39:36.594Z,8.03
2022-11-21T17:44:39.025Z,7.91
2022-11-21T17:49:41.596Z,7.57
2022-11-21T17:54:43.733Z,7.44
2022-11-21T17:59:47.058Z,7.41
2022-11-21T18:04:50.008Z,7.02
2022-11-21T18:09:52.649Z,6.84
2022-11-21T18:14:54.923Z,6.66
2022-11-21T18:19:58.345Z,6.49
2022-11-21T18:25:01.645Z,6.10
2022-11-21T18:30:05.306Z,5.92
2022-11-21T18:35:07.641Z,5.97
2022-11-21T18:40:10.479Z,5.99
2022-11-21T18:45:12.761Z,5.98
2022-11-21T18:50:15.598Z,6.26
2022-11-21T18:55:17.652Z,5.91
2022-11-21T19:00:20.096Z,5.97
2022-11-21T19:05:22.361Z,6.01
2022-11-21T19:15:47.351Z,6.07
2022-11-21T19:20:49.520Z,6.08
2022-11-21T19:25:51.580Z,6.02
2022-11-21T19:30:53.714Z,5.97
2022-11-21T19:36:07.761Z,6.10
2022-11-21T19:41:16.701Z,5.94
2022-11-21T19:46:21.778Z,5.98
2022-11-21T19:51:29.599Z,5.75
2022-11-21T19:56:32.568Z,5.97
2022-11-21T20:01:35.690Z,5.95
2022-11-21T20:06:41.651Z,5.79
2022-11-21T20:11:46.214Z,5.91
2022-11-21T20:16:49.853Z,5.81
2022-11-21T20:21:53.084Z,5.69
2022-11-21T20:26:55.355Z,6.06
2022-11-21T20:31:59.446Z,6.00
2022-11-21T20:37:01.733Z,6.05
2022-11-21T20:42:03.993Z,6.01
2022-11-21T20:47:07.659Z,5.88
2022-11-21T20:53:43.860Z,5.93
2022-11-21T20:57:32.079Z,5.64
2022-11-21T21:02:34.260Z,5.65
2022-11-21T21:07:36.532Z,5.86
2022-11-21T21:12:38.849Z,5.75
2022-11-21T21:17:41.166Z,5.70
2022-11-21T21:22:43.287Z,5.74
2022-11-21T21:27:53.371Z,5.60
2022-11-21T21:32:55.996Z,5.59
2022-11-21T21:37:58.075Z,5.55
2022-11-21T21:43:00.708Z,5.68
2022-11-21T21:48:03.007Z,5.45
2022-11-21T21:53:05.098Z,5.47
2022-11-21T21:58:07.166Z,5.37
2022-11-21T22:03:09.192Z,5.53
2022-11-21T22:08:11.456Z,5.54
2022-11-21T22:13:13.540Z,5.69
2022-11-21T22:18:15.614Z,5.71
2022-11-21T22:23:17.818Z,5.56
2022-11-21T22:28:19.961Z,5.57
2022-11-21T22:33:22.174Z,5.49
2022-11-21T22:38:24.420Z,5.23
2022-11-21T22:43:26.417Z,5.28
2022-11-21T22:48:29.505Z,5.57
2022-11-21T22:53:37.024Z,5.57
2022-11-21T22:58:42.698Z,5.56
2022-11-21T23:03:45.459Z,5.62
2022-11-21T23:08:48.017Z,5.45
2022-11-21T23:13:51.701Z,5.56
2022-11-21T23:18:55.385Z,5.55
2022-11-21T23:23:57.555Z,5.74
2022-11-21T23:29:05.039Z,5.61
2022-11-21T23:34:11.376Z,5.64
2022-11-21T23:39:13.775Z,5.47
2022-11-21T23:44:16.081Z,5.54
2022-11-21T23:49:18.195Z,5.48
2022-11-21T23:54:20.271Z,5.42
2022-11-21T23:59:22.522Z,5.21
